Archival Weather

Chicago O'hare International

Chicago O'hare International, Illinois (KORD)

Report from: Saturday, May 14, 2022 3:51 AM CDT
Current time: Monday, May 23, 2022 4:30 AM CDT

Current weather
Weather history
Weather forecast

Temperature20.0°C (68.0°F)
Dew point13.9°C (57.0°F)
Winds Calm
Visibility10 mi. (16.1 km)
Clouds Ceiling: Broken clouds 25,000 ft. (7,620 m)
Altimeter29.90 in.Hg (1013 mB)
Relative humidity68 %
Density altitude830 ft. (253 m)
Sea-level pressure101.2 kPa (1012 mB, 29.88 in.Hg)
Remarks Automated weather observing station with precipitation discriminator
Pressure falling, then rising
Flight conditions Visual Meteorological Conditions
Raw dataKORD 140851Z 00000KT 10SM BKN250 20/14 A2990 RMK AO2 SLP118 T02000139 55004
An error has occurred. This application may no longer respond until reloaded. Reload 🗙